createdAt,value
2022-09-28T00:00:01.662Z,7.57
2022-09-28T00:00:32.492Z,7.55
2022-09-28T00:01:03.293Z,7.53
2022-09-28T00:01:34.289Z,7.53
2022-09-28T00:02:05.259Z,7.53
2022-09-28T00:02:36.190Z,7.53
2022-09-28T00:03:07.104Z,7.52
2022-09-28T00:03:37.921Z,7.52
2022-09-28T00:04:08.699Z,7.50
2022-09-28T00:04:39.456Z,7.50
2022-09-28T00:05:10.199Z,7.50
2022-09-28T00:05:41.006Z,7.50
2022-09-28T00:06:11.767Z,7.49
2022-09-28T00:06:42.538Z,7.49
2022-09-28T00:07:13.295Z,7.46
2022-09-28T00:07:44.061Z,7.48
2022-09-28T00:08:14.814Z,7.46
2022-09-28T00:08:45.556Z,7.45
2022-09-28T00:09:16.447Z,7.45
2022-09-28T00:09:47.337Z,7.45
2022-09-28T00:10:18.137Z,7.43
2022-09-28T00:10:48.904Z,7.42
2022-09-28T00:11:19.656Z,7.43
2022-09-28T00:11:50.405Z,7.42
2022-09-28T00:12:21.159Z,7.40
2022-09-28T00:12:51.931Z,7.39
2022-09-28T00:13:22.709Z,7.40
2022-09-28T00:13:53.482Z,7.37
2022-09-28T00:14:24.236Z,7.39
2022-09-28T00:14:54.991Z,7.39
2022-09-28T00:15:25.787Z,7.39
2022-09-28T00:15:56.615Z,7.40
2022-09-28T00:16:27.471Z,7.42
2022-09-28T00:16:58.300Z,7.42
2022-09-28T00:17:29.060Z,7.43
2022-09-28T00:17:59.819Z,7.43
2022-09-28T00:18:30.570Z,7.43
2022-09-28T00:19:01.348Z,7.45
2022-09-28T00:19:32.127Z,7.43
2022-09-28T00:20:02.875Z,7.43
2022-09-28T00:20:33.650Z,7.42
2022-09-28T00:21:04.429Z,7.43
2022-09-28T00:21:35.177Z,7.43
2022-09-28T00:22:05.940Z,7.45
2022-09-28T00:22:36.690Z,7.45
2022-09-28T00:23:07.456Z,7.43
2022-09-28T00:23:38.200Z,7.45
2022-09-28T00:24:09.000Z,7.46
2022-09-28T00:24:39.749Z,7.45
2022-09-28T00:25:10.528Z,7.46
2022-09-28T00:25:41.338Z,7.45
2022-09-28T00:26:12.139Z,7.48
2022-09-28T00:26:42.892Z,7.48
2022-09-28T00:27:13.695Z,7.48
2022-09-28T00:27:44.423Z,7.49
2022-09-28T00:28:15.175Z,7.49
2022-09-28T00:28:45.964Z,7.49
2022-09-28T00:29:16.896Z,7.48
2022-09-28T00:29:47.702Z,7.49
2022-09-28T00:30:18.469Z,7.50
2022-09-28T00:30:49.242Z,7.50
2022-09-28T00:31:20.077Z,7.50
2022-09-28T00:31:50.959Z,7.52
2022-09-28T00:32:21.723Z,7.52
2022-09-28T00:32:52.501Z,7.52
2022-09-28T00:33:23.301Z,7.52
2022-09-28T00:33:54.045Z,7.53
2022-09-28T00:34:24.786Z,7.55
2022-09-28T00:34:55.557Z,7.58
2022-09-28T00:35:26.300Z,7.58
2022-09-28T00:35:57.069Z,7.60
2022-09-28T00:36:27.842Z,7.60
2022-09-28T00:36:58.610Z,7.61
2022-09-28T00:37:29.390Z,7.61
2022-09-28T00:38:00.174Z,7.63
2022-09-28T00:38:30.956Z,7.67
2022-09-28T00:39:01.682Z,7.68
2022-09-28T00:39:32.427Z,7.69
2022-09-28T00:40:03.334Z,7.72
2022-09-28T00:40:34.154Z,7.74
2022-09-28T00:41:04.953Z,7.72
2022-09-28T00:41:35.748Z,7.75
2022-09-28T00:42:06.511Z,7.75
2022-09-28T00:42:37.276Z,7.77
2022-09-28T00:43:08.036Z,7.80
2022-09-28T00:43:38.845Z,7.80
2022-09-28T00:44:09.585Z,7.82
2022-09-28T00:44:40.335Z,7.80
2022-09-28T00:45:11.109Z,7.82
2022-09-28T00:45:41.896Z,7.82
2022-09-28T00:46:12.710Z,7.82
2022-09-28T00:46:43.477Z,7.82
2022-09-28T00:47:14.234Z,7.83
2022-09-28T00:47:44.997Z,7.83
2022-09-28T00:48:15.743Z,7.85
2022-09-28T00:48:46.511Z,7.85
2022-09-28T00:49:17.471Z,7.85
2022-09-28T00:49:48.311Z,7.87
2022-09-28T00:50:19.063Z,7.89
2022-09-28T00:50:49.860Z,7.87
2022-09-28T00:51:20.636Z,7.87
2022-09-28T00:51:51.398Z,7.87
2022-09-28T00:52:22.195Z,7.89
2022-09-28T00:52:52.980Z,7.89
2022-09-28T00:53:23.760Z,7.90
2022-09-28T00:53:54.497Z,7.92
2022-09-28T00:54:25.281Z,7.90
2022-09-28T00:54:56.029Z,7.92
2022-09-28T00:55:26.806Z,7.92
2022-09-28T00:55:57.602Z,7.90
2022-09-28T00:56:28.366Z,7.90
2022-09-28T00:56:59.117Z,7.90
2022-09-28T00:57:29.869Z,7.92
2022-09-28T00:58:00.650Z,7.92
2022-09-28T00:58:31.427Z,7.93
2022-09-28T00:59:02.198Z,7.92
2022-09-28T00:59:32.998Z,7.93
2022-09-28T01:00:03.769Z,7.93
2022-09-28T01:00:34.599Z,7.93
2022-09-28T01:01:05.519Z,7.95
2022-09-28T01:01:36.307Z,7.95
2022-09-28T01:02:07.119Z,7.93
2022-09-28T01:02:37.915Z,7.93
2022-09-28T01:03:08.709Z,7.97
2022-09-28T01:03:39.490Z,7.97
2022-09-28T01:04:10.248Z,7.97
2022-09-28T01:04:41.047Z,7.97
2022-09-28T01:05:11.822Z,7.98
2022-09-28T01:05:42.630Z,8.01
2022-09-28T01:06:13.410Z,8.02
2022-09-28T01:06:44.161Z,8.05
2022-09-28T01:07:14.942Z,8.05
2022-09-28T01:07:45.729Z,8.07
2022-09-28T01:08:16.492Z,8.05
2022-09-28T01:08:47.309Z,8.05
2022-09-28T01:09:18.216Z,8.07
2022-09-28T01:09:48.998Z,8.07
2022-09-28T01:10:19.776Z,8.10
2022-09-28T01:10:50.579Z,8.11
2022-09-28T01:11:21.390Z,8.12
2022-09-28T01:11:52.179Z,8.16
2022-09-28T01:12:23.032Z,8.15
2022-09-28T01:12:53.811Z,8.18
2022-09-28T01:13:24.601Z,8.18
2022-09-28T01:13:55.398Z,8.18
2022-09-28T01:14:26.170Z,8.19
2022-09-28T01:14:56.945Z,8.22
2022-09-28T01:15:27.682Z,8.22
2022-09-28T01:15:58.570Z,8.23
2022-09-28T01:16:29.376Z,8.22
2022-09-28T01:17:00.142Z,8.23
2022-09-28T01:17:30.910Z,8.25
2022-09-28T01:18:01.672Z,8.26
2022-09-28T01:18:32.448Z,8.26
2022-09-28T01:19:03.230Z,8.29
2022-09-28T01:19:33.987Z,8.28
2022-09-28T01:20:04.771Z,8.28
2022-09-28T01:20:35.533Z,8.28
2022-09-28T01:21:06.332Z,8.30
2022-09-28T01:21:37.093Z,8.30
2022-09-28T01:22:07.894Z,8.34
2022-09-28T01:22:38.702Z,8.33
2022-09-28T01:23:09.452Z,8.34
2022-09-28T01:23:40.202Z,8.37
2022-09-28T01:24:10.977Z,8.37
2022-09-28T01:24:41.777Z,8.40
2022-09-28T01:25:12.534Z,8.40
2022-09-28T01:25:43.340Z,8.40
2022-09-28T01:26:14.114Z,8.41
2022-09-28T01:26:44.894Z,8.41
2022-09-28T01:27:15.634Z,8.41
2022-09-28T01:27:46.403Z,8.44
2022-09-28T01:28:17.166Z,8.44
2022-09-28T01:28:47.909Z,8.45
2022-09-28T01:29:18.797Z,8.47
2022-09-28T01:29:49.555Z,8.47
2022-09-28T01:30:20.339Z,8.48
2022-09-28T01:30:51.114Z,8.48
2022-09-28T01:31:21.955Z,8.50
2022-09-28T01:31:52.781Z,8.53
2022-09-28T01:32:23.565Z,8.50
2022-09-28T01:32:54.319Z,8.50
2022-09-28T01:33:25.076Z,8.50
2022-09-28T01:33:55.854Z,8.52
2022-09-28T01:34:26.624Z,8.52
2022-09-28T01:34:57.399Z,8.52
2022-09-28T01:35:28.180Z,8.53
2022-09-28T01:35:58.967Z,8.55
2022-09-28T01:36:29.746Z,8.55
2022-09-28T01:37:00.648Z,8.58
2022-09-28T01:37:31.409Z,8.58
2022-09-28T01:38:02.210Z,8.58
2022-09-28T01:38:32.938Z,8.59
2022-09-28T01:39:03.732Z,8.61
2022-09-28T01:39:34.486Z,8.62
2022-09-28T01:40:05.250Z,8.63
2022-09-28T01:40:36.079Z,8.63
2022-09-28T01:41:06.879Z,8.63
2022-09-28T01:41:37.677Z,8.62
2022-09-28T01:42:08.439Z,8.61
2022-09-28T01:42:39.213Z,8.59
2022-09-28T01:43:09.978Z,8.58
2022-09-28T01:43:40.740Z,8.56
2022-09-28T01:44:11.535Z,8.56
2022-09-28T01:44:42.329Z,8.55
2022-09-28T01:45:13.098Z,8.55
2022-09-28T01:45:43.931Z,8.56
2022-09-28T01:46:14.748Z,8.58
2022-09-28T01:46:45.597Z,8.58
2022-09-28T01:47:16.453Z,8.59
2022-09-28T01:47:47.219Z,8.58
2022-09-28T01:48:17.966Z,8.56
2022-09-28T01:48:48.782Z,8.55
2022-09-28T01:49:19.524Z,8.53
2022-09-28T01:49:50.333Z,8.55
2022-09-28T01:50:21.149Z,8.52
2022-09-28T01:50:51.915Z,8.55
2022-09-28T01:51:22.687Z,8.55
2022-09-28T01:51:53.531Z,8.56
2022-09-28T01:52:24.281Z,8.55
2022-09-28T01:52:55.040Z,8.58
2022-09-28T01:53:25.809Z,8.59
2022-09-28T01:53:56.592Z,8.58
2022-09-28T01:54:27.348Z,8.58
2022-09-28T01:54:58.156Z,8.58
2022-09-28T01:55:28.911Z,8.59
2022-09-28T01:55:59.653Z,8.59
2022-09-28T01:56:30.412Z,8.61
2022-09-28T01:57:01.280Z,8.62
2022-09-28T01:57:32.051Z,8.62
2022-09-28T01:58:02.822Z,8.59
2022-09-28T01:58:33.597Z,8.58
2022-09-28T01:59:04.389Z,8.58
2022-09-28T02:00:35.437Z,8.61
2022-09-28T02:01:06.500Z,8.61
2022-09-28T02:01:37.403Z,8.62
2022-09-28T02:02:08.315Z,8.62
2022-09-28T02:02:39.197Z,8.62
2022-09-28T02:03:10.067Z,8.61
2022-09-28T02:03:40.850Z,8.62
2022-09-28T02:04:11.625Z,8.65
2022-09-28T02:04:42.489Z,8.66
2022-09-28T02:05:13.293Z,8.66
2022-09-28T02:05:44.113Z,8.63
2022-09-28T02:06:14.967Z,8.65
2022-09-28T02:06:45.872Z,8.65
2022-09-28T02:07:16.677Z,8.63
2022-09-28T02:07:47.520Z,8.66
2022-09-28T02:08:18.308Z,8.65
2022-09-28T02:08:49.193Z,8.66
2022-09-28T02:09:20.021Z,8.66
2022-09-28T02:09:50.826Z,8.68
2022-09-28T02:10:21.619Z,8.70
2022-09-28T02:10:52.420Z,8.71
2022-09-28T02:11:23.235Z,8.73
2022-09-28T02:11:54.181Z,8.71
2022-09-28T02:12:25.022Z,8.71
2022-09-28T02:12:55.833Z,8.71
2022-09-28T02:13:26.659Z,8.71
2022-09-28T02:13:57.459Z,8.73
2022-09-28T02:14:28.279Z,8.73
2022-09-28T02:14:59.099Z,8.73
2022-09-28T02:15:29.899Z,8.74
2022-09-28T02:16:00.746Z,8.74
2022-09-28T02:16:31.615Z,8.74
2022-09-28T02:17:02.460Z,8.74
2022-09-28T02:17:33.279Z,8.74
2022-09-28T02:18:04.130Z,8.76
2022-09-28T02:18:34.911Z,8.74
2022-09-28T02:19:05.786Z,8.74
2022-09-28T02:19:36.588Z,8.76
2022-09-28T02:20:07.467Z,8.76
2022-09-28T02:20:38.390Z,8.71
2022-09-28T02:21:09.167Z,8.68
2022-09-28T02:21:40.004Z,8.70
2022-09-28T02:22:10.827Z,8.70
2022-09-28T02:22:41.616Z,8.68
2022-09-28T02:23:12.475Z,8.66
2022-09-28T02:23:43.328Z,8.66
2022-09-28T02:24:17.159Z,8.70
2022-09-28T02:24:46.894Z,8.70
2022-09-28T02:25:17.684Z,8.70
2022-09-28T02:25:48.475Z,8.71
2022-09-28T02:26:19.285Z,8.70
2022-09-28T02:26:50.140Z,8.70
2022-09-28T02:27:20.965Z,8.70
2022-09-28T02:27:51.767Z,8.70
2022-09-28T02:28:22.571Z,8.70
2022-09-28T02:28:53.433Z,8.74
2022-09-28T02:29:24.247Z,8.73
2022-09-28T02:29:55.085Z,8.73
2022-09-28T02:30:25.887Z,8.70
2022-09-28T02:30:56.689Z,8.68
2022-09-28T02:31:27.513Z,8.68
2022-09-28T02:31:58.371Z,8.68
2022-09-28T02:32:29.163Z,8.68
2022-09-28T02:32:59.981Z,8.68
2022-09-28T02:33:30.777Z,8.68
2022-09-28T02:34:01.606Z,8.68
2022-09-28T02:34:32.426Z,8.68
2022-09-28T02:35:03.246Z,8.68
2022-09-28T02:35:34.058Z,8.70
2022-09-28T02:36:04.898Z,8.71
2022-09-28T02:36:35.747Z,8.71
2022-09-28T02:37:06.556Z,8.71
2022-09-28T02:37:37.349Z,8.71
2022-09-28T02:38:08.185Z,8.71
2022-09-28T02:38:38.975Z,8.71
2022-09-28T02:39:09.764Z,8.71
2022-09-28T02:39:40.563Z,8.71
2022-09-28T02:40:11.399Z,8.71
2022-09-28T02:40:42.262Z,8.73
2022-09-28T02:41:13.079Z,8.70
2022-09-28T02:41:43.897Z,8.71
2022-09-28T02:42:14.717Z,8.71
2022-09-28T02:42:45.566Z,8.71
2022-09-28T02:43:16.400Z,8.71
2022-09-28T02:43:47.252Z,8.68
2022-09-28T02:44:18.062Z,8.68
2022-09-28T02:44:48.870Z,8.66
2022-09-28T02:45:19.683Z,8.65
2022-09-28T02:45:50.598Z,8.65
2022-09-28T02:46:21.518Z,8.66
2022-09-28T02:46:52.309Z,8.65
2022-09-28T02:47:23.142Z,8.63
2022-09-28T02:47:54.795Z,8.65
2022-09-28T02:48:42.639Z,8.65
2022-09-28T02:49:19.886Z,8.63
2022-09-28T02:49:31.163Z,8.63
2022-09-28T02:50:02.083Z,8.63
2022-09-28T02:50:32.942Z,8.63
2022-09-28T02:51:03.741Z,8.63
2022-09-28T02:51:34.581Z,8.63
2022-09-28T02:52:05.420Z,8.66
2022-09-28T02:52:36.282Z,8.65
2022-09-28T02:53:07.146Z,8.66
2022-09-28T02:53:37.981Z,8.68
2022-09-28T02:54:08.758Z,8.68
2022-09-28T02:54:39.531Z,8.68
2022-09-28T02:55:10.389Z,8.68
2022-09-28T02:55:41.233Z,8.68
2022-09-28T02:56:12.062Z,8.68
2022-09-28T02:56:42.921Z,8.70
2022-09-28T02:57:13.795Z,8.70
2022-09-28T02:57:44.596Z,8.70
2022-09-28T02:58:15.415Z,8.71
2022-09-28T02:58:46.232Z,8.71
2022-09-28T02:59:17.112Z,8.70
2022-09-28T02:59:47.963Z,8.73
2022-09-28T03:00:18.783Z,8.73
2022-09-28T03:00:49.673Z,8.73
2022-09-28T03:01:20.649Z,8.74
2022-09-28T03:01:51.727Z,8.74
2022-09-28T03:02:22.694Z,8.73
2022-09-28T03:02:53.545Z,8.74
2022-09-28T03:03:24.371Z,8.74
2022-09-28T03:03:55.285Z,8.77
2022-09-28T03:04:26.124Z,8.77
2022-09-28T03:04:56.944Z,8.79
2022-09-28T03:05:27.775Z,8.80
2022-09-28T03:05:58.585Z,8.79
2022-09-28T03:06:29.472Z,8.80
2022-09-28T03:07:00.334Z,8.77
2022-09-28T03:07:31.142Z,8.80
2022-09-28T03:08:01.992Z,8.79
2022-09-28T03:08:32.831Z,8.80
2022-09-28T03:09:03.713Z,8.80
2022-09-28T03:09:34.623Z,8.81
2022-09-28T03:10:05.477Z,8.79
2022-09-28T03:10:36.316Z,8.80
2022-09-28T03:11:07.116Z,8.81
2022-09-28T03:11:37.957Z,8.80
2022-09-28T03:12:08.766Z,8.81
2022-09-28T03:12:39.595Z,8.81
2022-09-28T03:13:10.478Z,8.81
2022-09-28T03:13:41.301Z,8.81
2022-09-28T03:14:12.145Z,8.81
2022-09-28T03:14:43.001Z,8.83
2022-09-28T03:15:13.827Z,8.84
2022-09-28T03:15:48.650Z,8.83
2022-09-28T03:16:16.765Z,8.86
2022-09-28T03:16:47.657Z,8.86
2022-09-28T03:17:18.464Z,8.86
2022-09-28T03:17:49.276Z,8.86
2022-09-28T03:18:20.093Z,8.86
2022-09-28T03:18:50.916Z,8.87
2022-09-28T03:19:21.709Z,8.86
2022-09-28T03:19:52.510Z,8.87
2022-09-28T03:20:23.336Z,8.87
2022-09-28T03:20:54.150Z,8.89
2022-09-28T03:21:24.978Z,8.89
2022-09-28T03:21:55.820Z,8.91
2022-09-28T03:22:26.618Z,8.89
2022-09-28T03:23:22.744Z,8.92
2022-09-28T03:23:30.092Z,8.92
2022-09-28T03:24:00.929Z,8.92
2022-09-28T03:24:31.725Z,8.94
2022-09-28T03:25:02.522Z,8.94
2022-09-28T03:25:33.363Z,8.94
2022-09-28T03:26:04.151Z,8.94
2022-09-28T03:32:01.926Z,8.89
2022-09-28T03:32:32.764Z,8.87
2022-09-28T03:33:03.616Z,8.86
2022-09-28T03:33:34.427Z,8.84
2022-09-28T03:34:05.220Z,8.83
2022-09-28T03:34:36.058Z,8.83
2022-09-28T03:35:06.881Z,8.79
2022-09-28T03:35:37.725Z,8.80
2022-09-28T03:36:08.507Z,8.77
2022-09-28T03:36:39.279Z,8.77
2022-09-28T03:37:10.120Z,8.77
2022-09-28T03:37:40.939Z,8.77
2022-09-28T03:38:11.824Z,8.77
2022-09-28T03:38:42.648Z,8.77
2022-09-28T03:39:13.420Z,8.76
2022-09-28T03:39:44.203Z,8.76
2022-09-28T03:40:15.148Z,8.76
2022-09-28T03:40:46.081Z,8.76
2022-09-28T03:41:16.866Z,8.76
2022-09-28T03:41:47.723Z,8.76
2022-09-28T03:42:18.576Z,8.74
2022-09-28T03:42:49.400Z,8.74
2022-09-28T03:43:20.239Z,8.71
2022-09-28T03:43:51.062Z,8.73
2022-09-28T03:44:21.864Z,8.73
2022-09-28T03:44:52.676Z,8.73
2022-09-28T03:45:23.445Z,8.73
2022-09-28T03:45:54.280Z,8.73
2022-09-28T03:46:25.238Z,8.73
2022-09-28T03:46:56.150Z,8.74
2022-09-28T03:47:26.960Z,8.71
2022-09-28T03:47:57.734Z,8.70
2022-09-28T03:48:32.096Z,8.66
2022-09-28T03:49:00.492Z,8.66
2022-09-28T03:49:31.332Z,8.66
2022-09-28T03:50:02.142Z,8.66
2022-09-28T03:50:32.953Z,8.65
2022-09-28T03:51:03.790Z,8.65
2022-09-28T03:51:34.563Z,8.66
2022-09-28T03:52:05.400Z,8.65
2022-09-28T03:52:36.202Z,8.65
2022-09-28T03:53:07.019Z,8.63
2022-09-28T03:53:37.815Z,8.63
2022-09-28T03:54:08.641Z,8.65
2022-09-28T03:54:39.465Z,8.65
2022-09-28T03:55:10.272Z,8.68
2022-09-28T03:55:41.118Z,8.65
2022-09-28T03:56:11.932Z,8.65
2022-09-28T03:56:42.746Z,8.63
2022-09-28T03:57:13.593Z,8.65
2022-09-28T03:57:44.399Z,8.65
2022-09-28T03:58:15.214Z,8.65
2022-09-28T03:58:46.028Z,8.66
2022-09-28T03:59:16.968Z,8.66
2022-09-28T03:59:47.785Z,8.68
2022-09-28T04:00:18.588Z,8.70
2022-09-28T04:00:49.470Z,8.70
2022-09-28T04:01:20.343Z,8.70
2022-09-28T04:01:51.311Z,8.71
2022-09-28T04:02:22.164Z,8.73
2022-09-28T04:02:52.986Z,8.74
2022-09-28T04:03:23.777Z,8.74
2022-09-28T04:03:54.583Z,8.77
2022-09-28T04:04:25.405Z,8.76
2022-09-28T04:04:56.196Z,8.77
2022-09-28T04:05:27.004Z,8.79
2022-09-28T04:05:57.877Z,8.79
2022-09-28T04:06:28.658Z,8.79
2022-09-28T04:06:59.445Z,8.77
2022-09-28T04:07:31.242Z,8.79
2022-09-28T04:08:02.199Z,8.79
2022-09-28T04:08:33.015Z,8.77
2022-09-28T04:09:03.786Z,8.77
2022-09-28T04:09:34.647Z,8.76
2022-09-28T04:10:05.424Z,8.76
2022-09-28T04:10:36.255Z,8.73
2022-09-28T04:11:07.064Z,8.71
2022-09-28T04:11:59.436Z,8.73
2022-09-28T04:12:10.604Z,8.71
2022-09-28T04:12:41.390Z,8.71
2022-09-28T04:13:12.217Z,8.68
2022-09-28T04:13:43.159Z,8.66
2022-09-28T04:14:14.004Z,8.62
2022-09-28T04:14:44.770Z,8.59
2022-09-28T04:15:15.552Z,8.58
2022-09-28T04:15:46.348Z,8.59
2022-09-28T04:16:17.206Z,8.59
2022-09-28T04:16:48.053Z,8.59
2022-09-28T04:17:18.903Z,8.59
2022-09-28T04:17:49.736Z,8.58
2022-09-28T04:18:20.538Z,8.53
2022-09-28T04:18:51.353Z,8.52
2022-09-28T04:19:22.129Z,8.50
2022-09-28T04:19:52.949Z,8.50
2022-09-28T04:20:23.769Z,8.52
2022-09-28T04:20:54.608Z,8.50
2022-09-28T04:21:25.427Z,8.52
2022-09-28T04:21:56.237Z,8.53
2022-09-28T04:22:27.197Z,8.53
2022-09-28T04:22:58.022Z,8.55
2022-09-28T04:23:28.820Z,8.56
2022-09-28T04:23:59.641Z,8.55
2022-09-28T04:24:30.471Z,8.53
2022-09-28T04:25:01.311Z,8.52
2022-09-28T04:25:32.104Z,8.52
2022-09-28T04:26:02.941Z,8.50
2022-09-28T04:26:33.748Z,8.48
2022-09-28T04:27:04.562Z,8.48
2022-09-28T04:27:35.420Z,8.45
2022-09-28T04:28:06.222Z,8.43
2022-09-28T04:28:37.013Z,8.38
2022-09-28T04:29:07.883Z,8.38
2022-09-28T04:29:38.751Z,8.40
2022-09-28T04:30:09.547Z,8.41
2022-09-28T04:30:40.382Z,8.40
2022-09-28T04:31:11.187Z,8.38
2022-09-28T04:31:42.060Z,8.37
2022-09-28T04:32:12.943Z,8.36
2022-09-28T04:32:43.764Z,8.34
2022-09-28T04:33:14.608Z,8.34
2022-09-28T04:33:45.443Z,8.36
2022-09-28T04:34:16.280Z,8.36
2022-09-28T04:34:47.147Z,8.37
2022-09-28T04:35:17.944Z,8.36
2022-09-28T04:35:48.798Z,8.36
2022-09-28T04:36:19.610Z,8.36
2022-09-28T04:36:50.446Z,8.34
2022-09-28T04:37:21.264Z,8.34
2022-09-28T04:37:52.101Z,8.36
2022-09-28T04:38:41.546Z,8.36
2022-09-28T04:38:55.582Z,8.37
2022-09-28T04:39:26.415Z,8.37
2022-09-28T04:39:57.214Z,8.38
2022-09-28T04:40:28.091Z,8.38
2022-09-28T04:40:58.941Z,8.40
2022-09-28T04:41:29.783Z,8.40
2022-09-28T04:42:00.643Z,8.40
2022-09-28T04:42:31.503Z,8.41
2022-09-28T04:43:02.368Z,8.41
2022-09-28T04:43:33.155Z,8.43
2022-09-28T04:44:04.119Z,8.43
2022-09-28T04:44:34.988Z,8.43
2022-09-28T04:45:05.843Z,8.44
2022-09-28T04:45:36.704Z,8.47
2022-09-28T04:46:07.685Z,8.45
2022-09-28T04:46:38.549Z,8.47
2022-09-28T04:47:09.391Z,8.48
2022-09-28T04:47:40.312Z,8.50
2022-09-28T04:48:11.162Z,8.52
2022-09-28T04:48:42.027Z,8.53
2022-09-28T04:49:12.958Z,8.53
2022-09-28T04:49:43.876Z,8.53
2022-09-28T04:50:14.756Z,8.55
2022-09-28T04:50:45.706Z,8.56
2022-09-28T04:51:16.530Z,8.58
2022-09-28T04:51:47.365Z,8.61
2022-09-28T04:52:18.835Z,8.61
2022-09-28T04:52:49.779Z,8.63
2022-09-28T04:53:20.554Z,8.63
2022-09-28T04:53:51.322Z,8.62
2022-09-28T04:54:22.077Z,8.63
2022-09-28T04:54:52.827Z,8.62
2022-09-28T04:55:23.596Z,8.62
2022-09-28T04:55:54.357Z,8.61
2022-09-28T04:56:25.117Z,8.62
2022-09-28T04:56:55.868Z,8.61
2022-09-28T04:57:26.617Z,8.62
2022-09-28T04:57:57.389Z,8.61
2022-09-28T04:58:28.137Z,8.58
2022-09-28T04:58:58.896Z,8.58
2022-09-28T04:59:29.655Z,8.58
2022-09-28T05:00:00.409Z,8.58
2022-09-28T05:00:31.175Z,8.58
2022-09-28T05:01:01.991Z,8.59
2022-09-28T05:01:32.803Z,8.58
2022-09-28T05:02:03.613Z,8.59
2022-09-28T05:02:34.448Z,8.59
2022-09-28T05:03:05.226Z,8.59
2022-09-28T05:03:35.960Z,8.61
2022-09-28T05:04:06.719Z,8.61
2022-09-28T05:04:37.468Z,8.61
2022-09-28T05:05:08.231Z,8.62
2022-09-28T05:05:38.979Z,8.61
2022-09-28T05:06:09.729Z,8.62
2022-09-28T05:06:40.505Z,8.62
2022-09-28T05:07:11.250Z,8.62
2022-09-28T05:07:42.029Z,8.62
2022-09-28T05:08:12.788Z,8.62
2022-09-28T05:08:43.541Z,8.62
2022-09-28T05:09:14.351Z,8.63
2022-09-28T05:09:45.248Z,8.63
2022-09-28T05:10:15.998Z,8.63
2022-09-28T05:10:47.739Z,8.63
2022-09-28T05:11:18.501Z,8.65
2022-09-28T05:11:49.261Z,8.66
2022-09-28T05:12:20.010Z,8.66
2022-09-28T05:12:50.812Z,8.70
2022-09-28T05:13:21.570Z,8.70
2022-09-28T05:13:52.326Z,8.73
2022-09-28T05:14:23.096Z,8.71
2022-09-28T05:14:53.840Z,8.74
2022-09-28T05:15:24.605Z,8.74
2022-09-28T05:15:58.882Z,8.74
2022-09-28T05:16:27.997Z,8.73
2022-09-28T05:16:58.841Z,8.74
2022-09-28T05:17:32.098Z,8.76
2022-09-28T05:17:59.831Z,8.77
2022-09-28T05:18:30.670Z,8.79
2022-09-28T05:19:01.416Z,8.77
2022-09-28T05:19:32.172Z,8.76
2022-09-28T05:20:02.930Z,8.76
2022-09-28T05:20:33.672Z,8.74
2022-09-28T05:21:04.431Z,8.73
2022-09-28T05:21:35.193Z,8.74
2022-09-28T05:22:05.954Z,8.73
2022-09-28T05:22:36.725Z,8.71
2022-09-28T05:23:07.482Z,8.70
2022-09-28T05:23:38.253Z,8.71
2022-09-28T05:24:09.014Z,8.70
2022-09-28T05:24:39.774Z,8.66
2022-09-28T05:25:10.523Z,8.63
2022-09-28T05:25:41.276Z,8.62
2022-09-28T05:26:12.044Z,8.59
2022-09-28T05:26:42.802Z,8.56
2022-09-28T05:27:13.552Z,8.55
2022-09-28T05:27:44.353Z,8.52
2022-09-28T05:28:15.113Z,8.53
2022-09-28T05:28:45.874Z,8.52
2022-09-28T05:29:16.777Z,8.52
2022-09-28T05:29:47.604Z,8.52
2022-09-28T05:30:18.352Z,8.50
2022-09-28T05:30:49.105Z,8.52
2022-09-28T05:31:19.916Z,8.52
2022-09-28T05:31:50.709Z,8.53
2022-09-28T05:32:21.454Z,8.55
2022-09-28T05:32:52.225Z,8.53
2022-09-28T05:33:22.975Z,8.53
2022-09-28T05:33:53.734Z,8.55
2022-09-28T05:34:24.486Z,8.55
2022-09-28T05:34:55.246Z,8.55
2022-09-28T05:35:26.022Z,8.55
2022-09-28T05:36:00.927Z,8.58
2022-09-28T05:36:29.115Z,8.58
2022-09-28T05:36:59.875Z,8.58
2022-09-28T05:37:30.625Z,8.58
2022-09-28T05:38:01.416Z,8.58
2022-09-28T05:38:32.166Z,8.59
2022-09-28T05:39:02.916Z,8.59
2022-09-28T05:39:33.667Z,8.56
2022-09-28T05:40:04.419Z,8.56
2022-09-28T05:40:35.214Z,8.55
2022-09-28T05:41:06.946Z,8.55
2022-09-28T05:41:37.861Z,8.55
2022-09-28T05:42:09.566Z,8.53
2022-09-28T05:42:40.315Z,8.55
2022-09-28T05:43:11.097Z,8.56
2022-09-28T05:43:41.848Z,8.55
2022-09-28T05:44:12.639Z,8.55
2022-09-28T05:44:43.385Z,8.55
2022-09-28T05:45:14.136Z,8.53
2022-09-28T05:45:44.945Z,8.52
2022-09-28T05:46:15.760Z,8.50
2022-09-28T05:46:46.529Z,8.52
2022-09-28T05:47:17.295Z,8.52
2022-09-28T05:47:48.135Z,8.53
2022-09-28T05:48:18.907Z,8.52
2022-09-28T05:48:49.662Z,8.52
2022-09-28T05:49:20.429Z,8.53
2022-09-28T05:49:51.177Z,8.55
2022-09-28T05:50:21.939Z,8.53
2022-09-28T05:50:52.744Z,8.56
2022-09-28T05:51:23.490Z,8.56
2022-09-28T05:51:54.237Z,8.56
2022-09-28T05:52:25.002Z,8.52
2022-09-28T05:52:55.770Z,8.52
2022-09-28T05:53:26.518Z,8.52
2022-09-28T05:53:59.759Z,8.50
2022-09-28T05:54:29.890Z,8.48
2022-09-28T05:55:00.640Z,8.50
2022-09-28T05:55:31.472Z,8.52
2022-09-28T05:56:02.259Z,8.52
2022-09-28T05:56:33.015Z,8.52
2022-09-28T05:57:03.769Z,8.53
2022-09-28T05:57:34.520Z,8.56
2022-09-28T05:58:05.294Z,8.55
2022-09-28T05:58:36.040Z,8.52
2022-09-28T05:59:06.810Z,8.48
2022-09-28T05:59:37.573Z,8.47
2022-09-28T06:00:08.343Z,8.47
2022-09-28T06:00:39.088Z,8.47
2022-09-28T06:01:09.944Z,8.44
2022-09-28T06:01:40.767Z,8.47
2022-09-28T06:02:11.557Z,8.48
2022-09-28T06:02:42.369Z,8.47
2022-09-28T06:03:13.165Z,8.48
2022-09-28T06:03:43.912Z,8.48
2022-09-28T06:04:14.835Z,8.50
2022-09-28T06:04:45.681Z,8.50
2022-09-28T06:05:16.431Z,8.48
2022-09-28T06:05:47.193Z,8.48
2022-09-28T06:06:17.957Z,8.50
2022-09-28T06:06:48.713Z,8.48
2022-09-28T06:07:19.463Z,8.48
2022-09-28T06:07:50.222Z,8.47
2022-09-28T06:08:20.982Z,8.50
2022-09-28T06:08:51.743Z,8.52
2022-09-28T06:09:25.814Z,8.53
2022-09-28T06:09:53.783Z,8.52
2022-09-28T06:10:24.531Z,8.53
2022-09-28T06:10:55.284Z,8.55
2022-09-28T06:11:26.042Z,8.55
2022-09-28T06:11:56.793Z,8.56
2022-09-28T06:12:27.544Z,8.55
2022-09-28T06:12:58.293Z,8.56
2022-09-28T06:13:29.814Z,8.58
2022-09-28T06:14:00.641Z,8.61
2022-09-28T06:14:31.402Z,8.61
2022-09-28T06:15:02.144Z,8.59
2022-09-28T06:15:32.893Z,8.59
2022-09-28T06:16:03.634Z,8.56
2022-09-28T06:16:34.413Z,8.55
2022-09-28T06:17:05.308Z,8.55
2022-09-28T06:17:36.075Z,8.53
2022-09-28T06:18:06.829Z,8.53
2022-09-28T06:18:37.601Z,8.55
2022-09-28T06:19:08.354Z,8.55
2022-09-28T06:19:39.104Z,8.55
2022-09-28T06:20:09.854Z,8.55
2022-09-28T06:20:40.605Z,8.56
2022-09-28T06:21:11.375Z,8.58
2022-09-28T06:21:42.146Z,8.58
2022-09-28T06:22:12.905Z,8.58
2022-09-28T06:22:43.676Z,8.55
2022-09-28T06:23:14.453Z,8.55
2022-09-28T06:23:48.977Z,8.55
2022-09-28T06:24:17.311Z,8.55
2022-09-28T06:24:48.186Z,8.56
2022-09-28T06:25:18.939Z,8.55
2022-09-28T06:25:49.706Z,8.56
2022-09-28T06:26:20.467Z,8.53
2022-09-28T06:26:51.217Z,8.50
2022-09-28T06:27:21.996Z,8.50
2022-09-28T06:27:52.758Z,8.52
2022-09-28T06:28:23.513Z,8.53
2022-09-28T06:28:54.260Z,8.55
2022-09-28T06:29:25.011Z,8.53
2022-09-28T06:29:55.774Z,8.52
2022-09-28T06:30:26.543Z,8.53
2022-09-28T06:30:57.348Z,8.55
2022-09-28T06:31:28.117Z,8.56
2022-09-28T06:31:58.884Z,8.56
2022-09-28T06:32:29.657Z,8.58
2022-09-28T06:33:01.181Z,8.58
2022-09-28T06:33:31.959Z,8.58
2022-09-28T06:34:02.718Z,8.58
2022-09-28T06:34:33.469Z,8.59
2022-09-28T06:35:04.227Z,8.59
2022-09-28T06:35:34.986Z,8.61
2022-09-28T06:36:05.759Z,8.62
2022-09-28T06:36:36.517Z,8.63
2022-09-28T06:37:07.287Z,8.66
2022-09-28T06:37:38.041Z,8.65
2022-09-28T06:38:08.779Z,8.65
2022-09-28T06:38:39.550Z,8.65
2022-09-28T06:39:10.300Z,8.65
2022-09-28T06:39:41.059Z,8.66
2022-09-28T06:40:11.813Z,8.66
2022-09-28T06:40:45.632Z,8.68
2022-09-28T06:41:13.345Z,8.68
2022-09-28T06:41:44.089Z,8.68
2022-09-28T06:42:14.839Z,8.68
2022-09-28T06:42:45.587Z,8.68
2022-09-28T06:43:16.351Z,8.70
2022-09-28T06:43:47.141Z,8.68
2022-09-28T06:44:17.953Z,8.68
2022-09-28T06:44:48.731Z,8.70
2022-09-28T06:45:19.487Z,8.70
2022-09-28T06:45:50.285Z,8.68
2022-09-28T06:46:21.118Z,8.66
2022-09-28T06:46:51.904Z,8.63
2022-09-28T06:47:22.670Z,8.62
2022-09-28T06:47:53.410Z,8.63
2022-09-28T06:48:24.200Z,8.63
2022-09-28T06:48:54.989Z,8.62
2022-09-28T06:49:25.740Z,8.59
2022-09-28T06:49:56.618Z,8.55
2022-09-28T06:50:27.409Z,8.56
2022-09-28T06:50:58.180Z,8.52
2022-09-28T06:51:28.932Z,8.52
2022-09-28T06:51:59.691Z,8.50
2022-09-28T06:52:30.447Z,8.52
2022-09-28T06:53:01.194Z,8.53
2022-09-28T06:53:31.974Z,8.55
2022-09-28T06:54:02.721Z,8.55
2022-09-28T06:54:33.474Z,8.56
2022-09-28T06:55:04.233Z,8.55
2022-09-28T06:55:34.991Z,8.55
2022-09-28T06:56:05.734Z,8.59
2022-09-28T06:56:36.492Z,8.58